createdAt,value
2019-04-16T00:00:11.897Z,11.73
2019-04-16T00:02:57.803Z,12.50
2019-04-16T00:05:45.096Z,12.50
2019-04-16T00:08:32.376Z,12.20
2019-04-16T00:11:19.650Z,12.30
2019-04-16T00:13:54.892Z,11.03
2019-04-16T00:16:22.842Z,11.53
2019-04-16T00:18:57.097Z,11.67
2019-04-16T00:21:45.623Z,11.67
2019-04-16T00:24:24.060Z,11.20
2019-04-16T00:26:58.047Z,12.20
2019-04-16T00:29:23.249Z,12.23
2019-04-16T00:32:16.716Z,12.33
2019-04-16T00:34:45.384Z,11.80
2019-04-16T00:37:13.389Z,10.93
2019-04-16T00:39:41.396Z,11.77
2019-04-16T00:42:09.408Z,11.70
2019-04-16T00:44:37.580Z,11.33
2019-04-16T00:47:05.393Z,11.53
2019-04-16T00:49:37.730Z,12.03
2019-04-16T00:52:06.923Z,10.93
2019-04-16T00:54:34.534Z,11.13
2019-04-16T00:57:02.555Z,10.33
2019-04-16T00:59:30.501Z,9.67
2019-04-16T01:01:58.558Z,10.10
2019-04-16T01:04:26.662Z,10.20
2019-04-16T01:06:54.705Z,9.90
2019-04-16T01:09:22.757Z,10.10
2019-04-16T01:11:50.779Z,11.17
2019-04-16T01:14:18.791Z,10.17
2019-04-16T01:16:47.136Z,10.50
2019-04-16T01:19:15.171Z,10.50
2019-04-16T01:21:44.809Z,10.37
2019-04-16T01:24:13.025Z,10.53
2019-04-16T01:26:40.927Z,11.13
2019-04-16T01:29:11.251Z,11.10
2019-04-16T01:32:01.503Z,10.93
2019-04-16T01:34:36.786Z,10.33
2019-04-16T01:37:18.258Z,10.37
2019-04-16T01:39:48.245Z,11.33
2019-04-16T01:42:16.370Z,10.33
2019-04-16T01:44:44.386Z,11.07
2019-04-16T01:47:12.378Z,10.10
2019-04-16T01:49:42.195Z,9.80
2019-04-16T01:52:10.628Z,9.93
2019-04-16T01:54:38.558Z,10.50
2019-04-16T01:57:06.550Z,10.53
2019-04-16T01:59:35.779Z,10.10
2019-04-16T02:02:04.401Z,10.00
2019-04-16T02:04:32.412Z,9.70
2019-04-16T02:07:00.366Z,10.30
2019-04-16T02:09:28.307Z,10.63
2019-04-16T02:11:56.370Z,11.57
2019-04-16T02:14:24.513Z,10.87
2019-04-16T02:16:55.669Z,10.80
2019-04-16T02:19:22.213Z,10.20
2019-04-16T02:21:50.260Z,11.10
2019-04-16T02:24:18.879Z,10.97
2019-04-16T02:26:47.362Z,11.53
2019-04-16T02:29:15.389Z,11.27
2019-04-16T02:31:43.291Z,10.00
2019-04-16T02:34:11.371Z,11.23
2019-04-16T02:36:39.530Z,11.03
2019-04-16T02:39:08.057Z,10.80
2019-04-16T02:41:36.183Z,10.30
2019-04-16T02:44:04.700Z,10.67
2019-04-16T02:46:32.918Z,11.20
2019-04-16T02:49:00.952Z,11.93
2019-04-16T02:51:39.543Z,10.73
2019-04-16T02:54:42.046Z,11.73
2019-04-16T02:57:28.388Z,11.20
2019-04-16T02:59:57.450Z,10.33
2019-04-16T03:02:41.936Z,10.90
2019-04-16T03:05:15.837Z,11.90
2019-04-16T03:07:43.747Z,11.00
2019-04-16T03:10:13.260Z,12.10
2019-04-16T03:12:41.510Z,10.80
2019-04-16T03:15:09.901Z,11.93
2019-04-16T03:17:42.760Z,11.83
2019-04-16T03:20:12.107Z,11.07
2019-04-16T03:22:40.053Z,11.17
2019-04-16T03:25:12.275Z,11.80
2019-04-16T03:27:38.142Z,11.67
2019-04-16T03:30:06.735Z,11.03
2019-04-16T03:32:46.890Z,10.70
2019-04-16T03:35:14.762Z,10.40
2019-04-16T03:37:42.689Z,9.90
2019-04-16T03:40:17.063Z,9.57
2019-04-16T03:42:40.371Z,10.10
2019-04-16T03:45:09.859Z,9.67
2019-04-16T03:47:38.187Z,10.23
2019-04-16T03:50:06.415Z,11.77
2019-04-16T03:52:37.489Z,10.97
2019-04-16T03:55:05.810Z,10.07
2019-04-16T03:57:33.915Z,10.00
2019-04-16T04:00:01.887Z,9.87
2019-04-16T04:02:30.023Z,9.50
2019-04-16T04:05:01.529Z,10.67
2019-04-16T04:07:27.735Z,9.93
2019-04-16T04:09:58.678Z,9.90
2019-04-16T04:12:27.745Z,9.63
2019-04-16T04:14:55.445Z,10.13
2019-04-16T04:17:23.493Z,10.43
2019-04-16T04:19:51.604Z,10.90
2019-04-16T04:22:19.752Z,10.60
2019-04-16T04:24:49.365Z,10.47
2019-04-16T04:27:19.364Z,10.73
2019-04-16T04:29:47.358Z,11.47
2019-04-16T04:32:15.489Z,11.03
2019-04-16T04:34:45.415Z,11.47
2019-04-16T04:37:13.206Z,12.00
2019-04-16T04:39:43.688Z,11.77
2019-04-16T04:42:10.973Z,12.03
2019-04-16T04:44:39.053Z,11.17
2019-04-16T04:47:07.786Z,11.17
2019-04-16T04:49:35.998Z,12.10
2019-04-16T04:52:04.002Z,12.87
2019-04-16T04:54:33.077Z,11.70
2019-04-16T04:57:00.941Z,12.40
2019-04-16T04:59:29.031Z,12.90
2019-04-16T05:01:57.030Z,13.57
2019-04-16T05:04:46.169Z,13.53
2019-04-16T05:07:14.357Z,13.57
2019-04-16T05:09:42.266Z,14.40
2019-04-16T05:12:10.157Z,14.80
2019-04-16T05:14:51.348Z,15.83
2019-04-16T05:17:19.182Z,15.10
2019-04-16T05:19:47.249Z,16.67
2019-04-16T05:22:15.205Z,15.37
2019-04-16T05:24:43.088Z,16.90
2019-04-16T05:27:10.971Z,15.60
2019-04-16T05:29:38.987Z,17.53
2019-04-16T05:32:06.904Z,17.53
2019-04-16T05:34:37.517Z,17.77
2019-04-16T05:37:04.624Z,19.67
2019-04-16T05:39:32.537Z,19.70
2019-04-16T05:42:00.622Z,19.37
2019-04-16T05:44:33.171Z,18.93
2019-04-16T05:46:58.485Z,21.10
2019-04-16T05:49:26.540Z,16.97
2019-04-16T05:51:54.603Z,16.73
2019-04-16T05:54:41.475Z,15.70
2019-04-16T05:57:13.282Z,13.13
2019-04-16T05:59:41.265Z,14.80
2019-04-16T06:02:23.021Z,14.83
2019-04-16T06:04:55.625Z,14.13
2019-04-16T06:07:20.633Z,14.10
2019-04-16T06:09:48.617Z,12.87
2019-04-16T06:12:16.630Z,12.77
2019-04-16T06:15:03.090Z,14.10
2019-04-16T06:17:57.707Z,11.93
2019-04-16T06:20:31.988Z,12.20
2019-04-16T06:23:09.713Z,11.13
2019-04-16T06:25:57.030Z,12.37
2019-04-16T06:28:37.516Z,11.93
2019-04-16T06:31:21.659Z,11.73
2019-04-16T06:34:08.950Z,11.97
2019-04-16T06:36:49.737Z,12.27
2019-04-16T06:39:39.913Z,12.80
2019-04-16T06:42:12.587Z,12.33
2019-04-16T06:45:01.711Z,12.40
2019-04-16T06:47:53.399Z,12.27
2019-04-16T06:50:46.022Z,12.97
2019-04-16T06:53:33.465Z,12.27
2019-04-16T06:56:13.425Z,10.83
2019-04-16T06:59:03.767Z,11.37
2019-04-16T07:01:46.196Z,11.30
2019-04-16T07:04:29.493Z,12.10
2019-04-16T07:07:12.798Z,11.90
2019-04-16T07:10:00.117Z,10.27
2019-04-16T07:12:31.271Z,10.10
2019-04-16T07:14:59.294Z,14.03
2019-04-16T07:17:32.933Z,13.13
2019-04-16T07:19:57.054Z,15.93
2019-04-16T07:22:25.033Z,11.93
2019-04-16T07:24:56.447Z,12.20
2019-04-16T07:27:24.941Z,17.53
2019-04-16T07:29:57.742Z,12.43
2019-04-16T07:32:40.264Z,10.90
2019-04-16T07:35:27.603Z,10.73
2019-04-16T07:38:11.366Z,11.67
2019-04-16T07:40:56.094Z,11.50
2019-04-16T07:43:52.565Z,10.67
2019-04-16T07:46:38.870Z,10.73
2019-04-16T07:49:28.974Z,11.10
2019-04-16T07:52:27.909Z,10.23
2019-04-16T07:55:09.173Z,10.50
2019-04-16T07:57:37.126Z,10.13
2019-04-16T08:00:08.653Z,10.93
2019-04-16T08:02:35.551Z,10.23
2019-04-16T08:05:08.688Z,9.20
2019-04-16T08:07:35.166Z,9.47
2019-04-16T08:10:03.517Z,9.70
2019-04-16T08:12:31.634Z,10.23
2019-04-16T08:15:12.547Z,10.77
2019-04-16T08:17:29.701Z,10.17
2019-04-16T08:19:57.657Z,9.80
2019-04-16T08:22:25.685Z,9.93
2019-04-16T08:25:02.465Z,9.10
2019-04-16T08:27:27.390Z,9.20
2019-04-16T08:29:55.376Z,10.17
2019-04-16T08:32:25.751Z,8.80
2019-04-16T08:34:53.280Z,8.80
2019-04-16T08:37:21.234Z,7.93
2019-04-16T08:39:49.245Z,9.03
2019-04-16T08:42:17.123Z,9.07
2019-04-16T08:44:45.137Z,8.77
2019-04-16T08:47:13.229Z,8.37
2019-04-16T08:49:41.271Z,9.03
2019-04-16T08:52:10.222Z,8.43
2019-04-16T08:54:38.911Z,8.00
2019-04-16T08:57:06.815Z,9.03
2019-04-16T08:59:34.784Z,9.67
2019-04-16T09:02:02.918Z,8.40
2019-04-16T09:04:33.993Z,8.43
2019-04-16T09:07:11.365Z,8.30
2019-04-16T09:09:40.186Z,8.67
2019-04-16T09:12:09.677Z,8.13
2019-04-16T09:14:44.715Z,9.47
2019-04-16T09:17:15.590Z,9.23
2019-04-16T09:19:48.044Z,9.90
2019-04-16T09:22:17.051Z,9.00
2019-04-16T09:24:54.799Z,9.50
2019-04-16T09:27:34.508Z,9.27
2019-04-16T09:30:24.675Z,9.37
2019-04-16T09:33:14.613Z,9.77
2019-04-16T09:36:00.827Z,9.43
2019-04-16T09:38:45.103Z,8.97
2019-04-16T09:41:19.883Z,9.80
2019-04-16T09:43:50.102Z,9.50
2019-04-16T09:46:25.543Z,8.50
2019-04-16T09:48:50.030Z,8.50
2019-04-16T09:51:20.526Z,9.23
2019-04-16T09:53:47.824Z,8.20
2019-04-16T09:56:33.886Z,8.57
2019-04-16T09:59:22.705Z,8.30
2019-04-16T10:01:54.757Z,8.17
2019-04-16T10:04:22.586Z,9.27
2019-04-16T10:06:50.671Z,8.43
2019-04-16T10:09:22.346Z,9.40
2019-04-16T10:11:50.206Z,8.20
2019-04-16T10:14:18.196Z,8.80
2019-04-16T10:16:46.211Z,8.53
2019-04-16T10:19:14.095Z,9.03
2019-04-16T10:21:42.029Z,8.53
2019-04-16T10:24:47.442Z,8.77
2019-04-16T10:27:23.269Z,8.50
2019-04-16T10:29:51.383Z,8.53
2019-04-16T10:32:19.418Z,8.30
2019-04-16T10:34:47.396Z,8.57
2019-04-16T10:37:15.437Z,9.07
2019-04-16T10:39:54.915Z,8.87
2019-04-16T10:42:54.123Z,8.30
2019-04-16T10:45:40.395Z,9.17
2019-04-16T10:48:30.490Z,8.33
2019-04-16T10:51:20.670Z,7.67
2019-04-16T10:53:55.912Z,8.23
2019-04-16T10:56:41.850Z,8.30
2019-04-16T10:59:31.995Z,8.40
2019-04-16T11:02:22.380Z,8.70
2019-04-16T11:05:06.658Z,8.20
2019-04-16T11:07:34.947Z,8.23
2019-04-16T11:10:04.414Z,7.80
2019-04-16T11:12:32.336Z,8.37
2019-04-16T11:15:00.232Z,8.83
2019-04-16T11:17:28.711Z,8.40
2019-04-16T11:19:59.927Z,9.37
2019-04-16T11:22:26.755Z,8.73
2019-04-16T11:24:54.576Z,8.38
2019-04-16T11:27:22.549Z,9.03
2019-04-16T11:29:50.516Z,7.80
2019-04-16T11:32:20.845Z,8.68
2019-04-16T11:34:48.775Z,8.20
2019-04-16T11:37:16.658Z,7.80
2019-04-16T11:39:44.623Z,9.25
2019-04-16T11:42:12.658Z,8.30
2019-04-16T11:44:40.713Z,8.50
2019-04-16T11:47:08.733Z,8.70
2019-04-16T11:49:36.670Z,9.13
2019-04-16T11:52:04.466Z,9.20
2019-04-16T11:54:32.499Z,8.35
2019-04-16T11:57:00.483Z,8.08
2019-04-16T11:59:28.269Z,8.10
2019-04-16T12:02:04.273Z,8.30
2019-04-16T12:04:58.860Z,8.78
2019-04-16T12:07:31.735Z,8.68
2019-04-16T12:10:34.121Z,8.90
2019-04-16T12:13:21.394Z,8.00
2019-04-16T12:16:17.765Z,8.93
2019-04-16T12:18:57.640Z,7.50
2019-04-16T12:21:36.123Z,8.08
2019-04-16T12:24:18.425Z,8.68
2019-04-16T12:27:03.957Z,8.23
2019-04-16T12:29:43.210Z,8.53
2019-04-16T12:32:42.683Z,9.30
2019-04-16T12:35:22.185Z,8.80
2019-04-16T12:38:14.718Z,9.18
2019-04-16T12:41:13.168Z,9.15
2019-04-16T12:43:55.178Z,9.13
2019-04-16T12:46:44.943Z,9.80
2019-04-16T12:49:50.620Z,9.53
2019-04-16T12:52:36.580Z,8.67
2019-04-16T12:55:31.721Z,9.50
2019-04-16T12:58:25.485Z,9.27
2019-04-16T13:01:11.378Z,9.90
2019-04-16T13:03:46.571Z,8.77
2019-04-16T13:06:26.151Z,9.17
2019-04-16T13:09:10.741Z,9.03
2019-04-16T13:11:45.153Z,8.50
2019-04-16T13:14:30.857Z,8.97
2019-04-16T13:17:15.150Z,9.37
2019-04-16T13:20:09.994Z,10.40
2019-04-16T13:22:42.428Z,9.93
2019-04-16T13:25:30.442Z,9.97
2019-04-16T13:27:58.340Z,9.50
2019-04-16T13:30:26.203Z,9.20
2019-04-16T13:32:54.149Z,10.17
2019-04-16T13:35:22.038Z,10.10
2019-04-16T13:37:49.898Z,10.07
2019-04-16T13:40:17.915Z,10.57
2019-04-16T13:42:45.881Z,9.97
2019-04-16T13:45:34.017Z,10.03
2019-04-16T13:50:59.757Z,10.23
2019-04-16T13:53:42.464Z,10.37
2019-04-16T13:56:22.137Z,9.87
2019-04-16T13:59:04.354Z,10.30
2019-04-16T14:01:35.884Z,10.23
2019-04-16T14:04:05.689Z,11.80
2019-04-16T14:06:33.749Z,11.43
2019-04-16T14:09:01.718Z,10.90
2019-04-16T14:11:29.752Z,10.80
2019-04-16T14:13:57.614Z,11.57
2019-04-16T14:16:25.805Z,10.43
2019-04-16T14:18:53.759Z,11.37
2019-04-16T14:21:21.666Z,11.03
2019-04-16T14:23:49.639Z,10.83
2019-04-16T14:26:17.682Z,11.33
2019-04-16T14:28:52.276Z,11.30
2019-04-16T14:31:16.938Z,10.50
2019-04-16T14:33:56.234Z,11.07
2019-04-16T14:36:24.119Z,11.03
2019-04-16T14:38:55.342Z,11.33
2019-04-16T14:41:22.991Z,11.57
2019-04-16T14:43:55.502Z,11.13
2019-04-16T14:46:28.256Z,11.00
2019-04-16T14:48:53.120Z,10.47
2019-04-16T14:51:20.834Z,10.50
2019-04-16T14:53:57.938Z,10.53
2019-04-16T14:56:36.016Z,11.57
2019-04-16T14:59:33.266Z,10.70
2019-04-16T15:02:07.888Z,11.07
2019-04-16T15:04:58.275Z,11.53
2019-04-16T15:07:54.974Z,11.70
2019-04-16T15:10:48.473Z,10.73
2019-04-16T15:13:32.035Z,10.70
2019-04-16T15:16:22.179Z,10.00
2019-04-16T15:19:08.111Z,11.37
2019-04-16T15:21:53.883Z,11.97
2019-04-16T15:24:44.069Z,9.97
2019-04-16T15:27:37.457Z,11.40
2019-04-16T15:30:32.843Z,11.30
2019-04-16T15:33:18.732Z,15.37
2019-04-16T15:35:51.614Z,11.20
2019-04-16T15:38:32.140Z,12.13
2019-04-16T15:41:17.492Z,11.87
2019-04-16T15:44:03.359Z,11.53
2019-04-16T15:46:56.987Z,11.43
2019-04-16T15:49:43.831Z,10.87
2019-04-16T15:52:46.740Z,10.93
2019-04-16T15:55:37.188Z,11.93
2019-04-16T15:58:24.478Z,10.40
2019-04-16T16:01:14.462Z,10.77
2019-04-16T16:04:01.842Z,10.90
2019-04-16T16:06:58.409Z,12.60
2019-04-16T16:09:48.752Z,13.27
2019-04-16T16:12:24.743Z,12.73
2019-04-16T16:14:52.794Z,12.87
2019-04-16T16:17:22.546Z,12.73
2019-04-16T16:19:51.268Z,12.23
2019-04-16T16:22:19.690Z,13.80
2019-04-16T16:24:47.723Z,12.10
2019-04-16T16:27:15.579Z,13.63
2019-04-16T16:29:43.535Z,12.27
2019-04-16T16:32:11.643Z,13.50
2019-04-16T16:34:39.513Z,12.17
2019-04-16T16:37:07.540Z,12.83
2019-04-16T16:39:35.421Z,12.83
2019-04-16T16:42:03.602Z,12.23
2019-04-16T16:44:31.522Z,13.07
2019-04-16T16:47:17.502Z,13.10
2019-04-16T16:49:45.690Z,13.27
2019-04-16T16:52:36.206Z,13.23
2019-04-16T16:55:06.630Z,13.20
2019-04-16T16:57:37.937Z,14.10
2019-04-16T17:00:25.031Z,13.73
2019-04-16T17:03:08.393Z,14.33
2019-04-16T17:05:36.787Z,14.93
2019-04-16T17:08:04.815Z,15.73
2019-04-16T17:10:32.671Z,17.03
2019-04-16T17:13:00.585Z,14.43
2019-04-16T17:15:28.499Z,14.37
2019-04-16T17:17:57.386Z,14.40
2019-04-16T17:20:25.337Z,14.63
2019-04-16T17:22:53.693Z,15.03
2019-04-16T17:25:35.498Z,17.07
2019-04-16T17:27:51.989Z,20.40
2019-04-16T17:30:20.105Z,15.93
2019-04-16T17:32:48.061Z,16.27
2019-04-16T17:35:16.164Z,15.93
2019-04-16T17:37:44.143Z,17.50
2019-04-16T17:40:24.043Z,16.90
2019-04-16T17:43:02.184Z,17.57
2019-04-16T17:45:58.659Z,16.83
2019-04-16T17:48:39.607Z,16.80
2019-04-16T17:51:26.862Z,16.23
2019-04-16T17:54:16.833Z,15.57
2019-04-16T17:57:02.497Z,15.33
2019-04-16T17:59:55.823Z,16.03
2019-04-16T18:03:03.010Z,17.27
2019-04-16T18:05:33.964Z,15.97
2019-04-16T18:08:30.997Z,17.27
2019-04-16T18:11:10.904Z,17.30
2019-04-16T18:13:49.313Z,20.37
2019-04-16T18:16:24.654Z,18.73
2019-04-16T18:19:01.682Z,19.40
2019-04-16T18:21:57.744Z,21.10
2019-04-16T18:24:43.772Z,21.10
2019-04-16T18:27:29.926Z,20.63
2019-04-16T18:30:17.453Z,19.47
2019-04-16T18:33:07.640Z,19.40
2019-04-16T18:35:40.664Z,18.90
2019-04-16T18:38:36.637Z,18.70
2019-04-16T18:41:27.842Z,19.03
2019-04-16T18:44:13.951Z,18.00
2019-04-16T18:46:52.991Z,18.50
2019-04-16T18:49:21.937Z,17.97
2019-04-16T18:51:49.791Z,19.23
2019-04-16T18:54:17.734Z,18.83
2019-04-16T18:56:45.640Z,17.07
2019-04-16T18:59:13.585Z,20.67
2019-04-16T19:01:42.545Z,22.73
2019-04-16T19:04:10.578Z,25.97
2019-04-16T19:06:38.447Z,27.10
2019-04-16T19:09:06.763Z,27.30
2019-04-16T19:11:34.686Z,28.13
2019-04-16T19:14:02.662Z,24.30
2019-04-16T19:16:30.478Z,26.30
2019-04-16T19:18:58.387Z,30.10
2019-04-16T19:21:26.473Z,30.10
2019-04-16T19:23:54.436Z,30.93
2019-04-16T19:26:40.726Z,29.57
2019-04-16T19:29:13.255Z,27.47
2019-04-16T19:31:38.515Z,26.07
2019-04-16T19:34:10.197Z,25.77
2019-04-16T19:36:36.426Z,26.30
2019-04-16T19:39:06.942Z,27.87
2019-04-16T19:41:35.820Z,28.80
2019-04-16T19:44:07.584Z,28.77
2019-04-16T19:46:35.824Z,27.37
2019-04-16T19:49:03.941Z,28.10
2019-04-16T19:51:31.972Z,29.77
2019-04-16T19:54:00.374Z,27.77
2019-04-16T19:56:28.650Z,27.40
2019-04-16T19:58:56.847Z,28.00
2019-04-16T20:01:27.562Z,23.67
2019-04-16T20:03:55.684Z,22.93
2019-04-16T20:06:26.194Z,20.93
2019-04-16T20:08:53.864Z,19.30
2019-04-16T20:11:23.014Z,21.40
2019-04-16T20:13:51.514Z,19.93
2019-04-16T20:16:24.479Z,21.40
2019-04-16T20:18:54.297Z,20.80
2019-04-16T20:21:24.807Z,21.77
2019-04-16T20:23:55.571Z,20.57
2019-04-16T20:26:34.543Z,22.10
2019-04-16T20:29:05.323Z,22.03
2019-04-16T20:31:34.325Z,21.83
2019-04-16T20:34:02.509Z,21.80
2019-04-16T20:36:30.754Z,20.17
2019-04-16T20:38:58.830Z,18.73
2019-04-16T20:41:27.135Z,19.67
2019-04-16T20:43:55.057Z,19.10
2019-04-16T20:46:23.176Z,18.97
2019-04-16T20:49:05.667Z,19.13
2019-04-16T20:51:26.203Z,18.40
2019-04-16T20:53:50.712Z,20.60
2019-04-16T20:56:20.482Z,20.97
2019-04-16T20:58:48.614Z,20.63
2019-04-16T21:01:32.207Z,22.53
2019-04-16T21:04:03.806Z,22.40
2019-04-16T21:06:25.876Z,21.03
2019-04-16T21:08:57.048Z,21.13
2019-04-16T21:11:23.816Z,20.63
2019-04-16T21:13:51.990Z,21.40
2019-04-16T21:16:19.958Z,20.33
2019-04-16T21:18:48.062Z,19.57
2019-04-16T21:21:16.133Z,20.57
2019-04-16T21:23:45.550Z,20.63
2019-04-16T21:26:13.308Z,20.13
2019-04-16T21:29:02.201Z,20.93
2019-04-16T21:31:32.267Z,24.90
2019-04-16T21:34:24.290Z,20.40
2019-04-16T21:37:10.571Z,20.53
2019-04-16T21:39:58.098Z,18.50
2019-04-16T21:42:26.109Z,18.13
2019-04-16T21:45:13.666Z,18.20
2019-04-16T21:47:43.098Z,17.80
2019-04-16T21:50:16.029Z,16.50
2019-04-16T21:52:41.594Z,17.30
2019-04-16T21:55:09.492Z,16.90
2019-04-16T21:57:37.412Z,16.90
2019-04-16T22:00:08.504Z,15.00
2019-04-16T22:02:38.775Z,15.03
2019-04-16T22:05:08.093Z,14.33
2019-04-16T22:07:35.875Z,14.60
2019-04-16T22:10:04.030Z,14.53
2019-04-16T22:12:31.987Z,15.23
2019-04-16T22:14:59.870Z,14.23
2019-04-16T22:17:27.878Z,14.70
2019-04-16T22:20:01.512Z,13.37
2019-04-16T22:22:28.081Z,13.70
2019-04-16T22:24:56.445Z,13.33
2019-04-16T22:27:24.201Z,14.00
2019-04-16T22:29:52.053Z,13.70
2019-04-16T22:32:19.904Z,14.27
2019-04-16T22:34:47.785Z,13.50
2019-04-16T22:37:15.662Z,12.70
2019-04-16T22:39:51.213Z,13.40
2019-04-16T22:42:30.622Z,13.37
2019-04-16T22:45:16.885Z,13.00
2019-04-16T22:47:45.558Z,12.10
2019-04-16T22:50:16.979Z,11.77
2019-04-16T22:52:44.975Z,11.97
2019-04-16T22:55:13.135Z,14.77
2019-04-16T22:57:41.121Z,11.53
2019-04-16T23:00:18.953Z,11.37
2019-04-16T23:02:48.277Z,10.10
2019-04-16T23:05:16.363Z,10.43
2019-04-16T23:07:44.298Z,11.10
2019-04-16T23:10:12.310Z,11.43
2019-04-16T23:12:40.176Z,11.13
2019-04-16T23:15:09.885Z,11.60
2019-04-16T23:17:37.734Z,12.00
2019-04-16T23:20:06.026Z,10.73
2019-04-16T23:22:34.022Z,10.90
2019-04-16T23:25:02.051Z,9.87
2019-04-16T23:27:29.914Z,9.87
2019-04-16T23:29:58.601Z,9.93
2019-04-16T23:32:28.663Z,9.00
2019-04-16T23:34:56.195Z,9.13
2019-04-16T23:37:24.159Z,9.43
2019-04-16T23:39:52.153Z,8.80
2019-04-16T23:42:20.198Z,8.97
2019-04-16T23:45:06.141Z,9.20
2019-04-16T23:47:51.670Z,9.33
2019-04-16T23:50:45.030Z,10.03
2019-04-16T23:53:16.878Z,9.03
2019-04-16T23:56:04.234Z,9.33
2019-04-16T23:58:39.071Z,9.87
